sensor_id;sensor_type;location;lat;lon;timestamp;P1;durP1;ratioP1;P2;durP2;ratioP2
65206;SDS011;58477;48.072;11.970;2023-07-29T00:01:50;1.60;;;1.50;;
65206;SDS011;58477;48.072;11.970;2023-07-29T00:04:16;4.03;;;1.83;;
65206;SDS011;58477;48.072;11.970;2023-07-29T00:06:42;2.08;;;1.90;;
65206;SDS011;58477;48.072;11.970;2023-07-29T00:09:07;2.10;;;1.70;;
65206;SDS011;58477;48.072;11.970;2023-07-29T00:11:32;2.28;;;1.60;;
65206;SDS011;58477;48.072;11.970;2023-07-29T00:14:01;2.17;;;1.50;;
65206;SDS011;58477;48.072;11.970;2023-07-29T00:16:27;4.57;;;2.38;;
65206;SDS011;58477;48.072;11.970;2023-07-29T00:18:53;2.40;;;1.90;;
65206;SDS011;58477;48.072;11.970;2023-07-29T00:21:18;2.10;;;1.88;;
65206;SDS011;58477;48.072;11.970;2023-07-29T00:23:44;2.75;;;2.03;;
65206;SDS011;58477;48.072;11.970;2023-07-29T00:26:10;4.32;;;2.40;;
65206;SDS011;58477;48.072;11.970;2023-07-29T00:28:35;3.15;;;2.10;;
65206;SDS011;58477;48.072;11.970;2023-07-29T00:31:01;5.95;;;2.30;;
65206;SDS011;58477;48.072;11.970;2023-07-29T00:33:27;2.38;;;2.15;;
65206;SDS011;58477;48.072;11.970;2023-07-29T00:35:52;3.13;;;2.40;;
65206;SDS011;58477;48.072;11.970;2023-07-29T00:38:18;2.50;;;2.08;;
65206;SDS011;58477;48.072;11.970;2023-07-29T00:40:44;2.70;;;2.10;;
65206;SDS011;58477;48.072;11.970;2023-07-29T00:43:09;2.63;;;2.40;;
65206;SDS011;58477;48.072;11.970;2023-07-29T00:45:34;2.95;;;2.05;;
65206;SDS011;58477;48.072;11.970;2023-07-29T00:48:01;2.55;;;2.35;;
65206;SDS011;58477;48.072;11.970;2023-07-29T00:50:28;4.15;;;2.47;;
65206;SDS011;58477;48.072;11.970;2023-07-29T00:52:55;3.60;;;2.30;;
65206;SDS011;58477;48.072;11.970;2023-07-29T00:55:22;2.55;;;2.17;;
65206;SDS011;58477;48.072;11.970;2023-07-29T00:57:48;2.90;;;1.95;;
65206;SDS011;58477;48.072;11.970;2023-07-29T01:00:16;2.53;;;2.15;;
65206;SDS011;58477;48.072;11.970;2023-07-29T01:02:42;1.92;;;1.83;;
65206;SDS011;58477;48.072;11.970;2023-07-29T01:05:08;2.60;;;2.10;;
65206;SDS011;58477;48.072;11.970;2023-07-29T01:07:39;2.20;;;1.92;;
65206;SDS011;58477;48.072;11.970;2023-07-29T01:10:18;6.03;;;2.25;;
65206;SDS011;58477;48.072;11.970;2023-07-29T01:18:05;2.90;;;2.13;;
65206;SDS011;58477;48.072;11.970;2023-07-29T01:20:37;2.50;;;2.00;;
65206;SDS011;58477;48.072;11.970;2023-07-29T01:23:05;2.22;;;2.03;;
65206;SDS011;58477;48.072;11.970;2023-07-29T01:25:30;4.80;;;1.70;;
65206;SDS011;58477;48.072;11.970;2023-07-29T01:27:56;3.42;;;1.92;;
65206;SDS011;58477;48.072;11.970;2023-07-29T01:30:22;2.00;;;1.90;;
65206;SDS011;58477;48.072;11.970;2023-07-29T01:33:03;2.10;;;1.90;;
65206;SDS011;58477;48.072;11.970;2023-07-29T01:35:35;3.72;;;1.95;;
65206;SDS011;58477;48.072;11.970;2023-07-29T01:38:07;4.53;;;1.83;;
65206;SDS011;58477;48.072;11.970;2023-07-29T01:40:37;2.17;;;1.80;;
65206;SDS011;58477;48.072;11.970;2023-07-29T01:43:03;2.35;;;1.77;;
65206;SDS011;58477;48.072;11.970;2023-07-29T01:45:28;3.40;;;2.25;;
65206;SDS011;58477;48.072;11.970;2023-07-29T01:47:57;2.70;;;2.20;;
65206;SDS011;58477;48.072;11.970;2023-07-29T01:50:22;2.20;;;1.83;;
65206;SDS011;58477;48.072;11.970;2023-07-29T01:52:48;2.17;;;1.90;;
65206;SDS011;58477;48.072;11.970;2023-07-29T01:55:13;2.42;;;2.22;;
65206;SDS011;58477;48.072;11.970;2023-07-29T01:57:40;3.83;;;1.85;;
65206;SDS011;58477;48.072;11.970;2023-07-29T02:00:06;2.53;;;2.10;;
65206;SDS011;58477;48.072;11.970;2023-07-29T02:02:39;3.88;;;2.25;;
65206;SDS011;58477;48.072;11.970;2023-07-29T02:05:04;2.55;;;2.10;;
65206;SDS011;58477;48.072;11.970;2023-07-29T02:07:30;1.95;;;1.75;;
65206;SDS011;58477;48.072;11.970;2023-07-29T02:09:56;2.35;;;2.05;;
65206;SDS011;58477;48.072;11.970;2023-07-29T02:12:21;2.83;;;1.83;;
65206;SDS011;58477;48.072;11.970;2023-07-29T02:14:46;2.25;;;2.05;;
65206;SDS011;58477;48.072;11.970;2023-07-29T02:17:12;2.00;;;1.77;;
65206;SDS011;58477;48.072;11.970;2023-07-29T02:19:37;4.85;;;2.20;;
65206;SDS011;58477;48.072;11.970;2023-07-29T02:22:03;3.42;;;1.90;;
65206;SDS011;58477;48.072;11.970;2023-07-29T02:24:28;2.10;;;1.90;;
65206;SDS011;58477;48.072;11.970;2023-07-29T02:26:54;4.30;;;1.95;;
65206;SDS011;58477;48.072;11.970;2023-07-29T02:29:20;3.42;;;2.10;;
65206;SDS011;58477;48.072;11.970;2023-07-29T02:31:46;2.50;;;2.00;;
65206;SDS011;58477;48.072;11.970;2023-07-29T02:34:12;2.63;;;2.25;;
65206;SDS011;58477;48.072;11.970;2023-07-29T02:36:38;2.30;;;2.10;;
65206;SDS011;58477;48.072;11.970;2023-07-29T02:39:04;3.00;;;2.40;;
65206;SDS011;58477;48.072;11.970;2023-07-29T02:41:30;2.35;;;2.13;;
65206;SDS011;58477;48.072;11.970;2023-07-29T02:43:55;5.45;;;3.15;;
65206;SDS011;58477;48.072;11.970;2023-07-29T02:46:21;3.20;;;2.58;;
65206;SDS011;58477;48.072;11.970;2023-07-29T02:48:46;3.22;;;2.40;;
65206;SDS011;58477;48.072;11.970;2023-07-29T02:51:12;2.90;;;2.70;;
65206;SDS011;58477;48.072;11.970;2023-07-29T02:53:37;4.18;;;2.40;;
65206;SDS011;58477;48.072;11.970;2023-07-29T02:56:03;2.63;;;2.25;;
65206;SDS011;58477;48.072;11.970;2023-07-29T02:58:29;2.33;;;2.08;;
65206;SDS011;58477;48.072;11.970;2023-07-29T03:01:04;4.45;;;2.17;;
65206;SDS011;58477;48.072;11.970;2023-07-29T03:03:30;3.13;;;2.20;;
65206;SDS011;58477;48.072;11.970;2023-07-29T03:05:58;4.78;;;2.60;;
65206;SDS011;58477;48.072;11.970;2023-07-29T03:08:28;5.00;;;2.63;;
65206;SDS011;58477;48.072;11.970;2023-07-29T03:10:54;2.53;;;2.22;;
65206;SDS011;58477;48.072;11.970;2023-07-29T03:13:20;2.75;;;2.20;;
65206;SDS011;58477;48.072;11.970;2023-07-29T03:15:45;3.47;;;2.15;;
65206;SDS011;58477;48.072;11.970;2023-07-29T03:18:11;2.60;;;2.38;;
65206;SDS011;58477;48.072;11.970;2023-07-29T03:20:36;3.13;;;2.40;;
65206;SDS011;58477;48.072;11.970;2023-07-29T03:23:02;2.80;;;2.40;;
65206;SDS011;58477;48.072;11.970;2023-07-29T03:25:28;2.35;;;2.15;;
65206;SDS011;58477;48.072;11.970;2023-07-29T03:27:54;6.05;;;2.45;;
65206;SDS011;58477;48.072;11.970;2023-07-29T03:30:20;3.42;;;2.60;;
65206;SDS011;58477;48.072;11.970;2023-07-29T03:32:47;2.72;;;2.17;;
65206;SDS011;58477;48.072;11.970;2023-07-29T03:35:13;6.32;;;2.55;;
65206;SDS011;58477;48.072;11.970;2023-07-29T03:37:38;3.25;;;2.33;;
65206;SDS011;58477;48.072;11.970;2023-07-29T03:40:06;3.03;;;2.60;;
65206;SDS011;58477;48.072;11.970;2023-07-29T03:42:32;6.38;;;2.47;;
65206;SDS011;58477;48.072;11.970;2023-07-29T03:44:58;3.17;;;2.65;;
65206;SDS011;58477;48.072;11.970;2023-07-29T03:47:24;3.30;;;2.67;;
65206;SDS011;58477;48.072;11.970;2023-07-29T03:49:51;2.90;;;2.53;;
65206;SDS011;58477;48.072;11.970;2023-07-29T03:52:19;6.28;;;2.78;;
65206;SDS011;58477;48.072;11.970;2023-07-29T03:54:45;3.35;;;2.70;;
65206;SDS011;58477;48.072;11.970;2023-07-29T03:57:10;2.58;;;2.38;;
65206;SDS011;58477;48.072;11.970;2023-07-29T03:59:36;7.45;;;3.05;;
65206;SDS011;58477;48.072;11.970;2023-07-29T04:02:01;4.38;;;3.53;;
65206;SDS011;58477;48.072;11.970;2023-07-29T04:04:27;3.80;;;2.97;;
65206;SDS011;58477;48.072;11.970;2023-07-29T04:06:52;5.85;;;2.70;;
65206;SDS011;58477;48.072;11.970;2023-07-29T04:09:18;4.85;;;2.58;;
65206;SDS011;58477;48.072;11.970;2023-07-29T04:11:43;5.78;;;2.80;;
65206;SDS011;58477;48.072;11.970;2023-07-29T04:14:09;6.60;;;2.90;;
65206;SDS011;58477;48.072;11.970;2023-07-29T04:16:34;3.17;;;2.70;;
65206;SDS011;58477;48.072;11.970;2023-07-29T04:19:00;3.88;;;2.70;;
65206;SDS011;58477;48.072;11.970;2023-07-29T04:21:25;3.08;;;2.60;;
65206;SDS011;58477;48.072;11.970;2023-07-29T04:23:51;4.65;;;2.47;;
65206;SDS011;58477;48.072;11.970;2023-07-29T04:26:16;3.45;;;2.70;;
65206;SDS011;58477;48.072;11.970;2023-07-29T04:28:42;3.10;;;2.65;;
65206;SDS011;58477;48.072;11.970;2023-07-29T04:31:08;5.10;;;2.60;;
65206;SDS011;58477;48.072;11.970;2023-07-29T04:33:33;3.22;;;2.83;;
65206;SDS011;58477;48.072;11.970;2023-07-29T04:35:59;4.55;;;2.38;;
65206;SDS011;58477;48.072;11.970;2023-07-29T04:38:27;3.13;;;2.50;;
65206;SDS011;58477;48.072;11.970;2023-07-29T04:40:55;3.37;;;2.60;;
65206;SDS011;58477;48.072;11.970;2023-07-29T04:43:20;3.00;;;2.55;;
65206;SDS011;58477;48.072;11.970;2023-07-29T04:45:46;3.50;;;2.50;;
65206;SDS011;58477;48.072;11.970;2023-07-29T04:48:11;3.30;;;2.85;;
65206;SDS011;58477;48.072;11.970;2023-07-29T04:50:37;4.68;;;2.42;;
65206;SDS011;58477;48.072;11.970;2023-07-29T04:53:02;2.90;;;2.17;;
65206;SDS011;58477;48.072;11.970;2023-07-29T04:55:28;2.05;;;1.85;;
65206;SDS011;58477;48.072;11.970;2023-07-29T04:57:53;4.82;;;1.98;;
65206;SDS011;58477;48.072;11.970;2023-07-29T05:00:18;5.35;;;2.00;;
65206;SDS011;58477;48.072;11.970;2023-07-29T05:02:44;1.98;;;1.88;;
65206;SDS011;58477;48.072;11.970;2023-07-29T05:05:10;2.65;;;2.05;;
65206;SDS011;58477;48.072;11.970;2023-07-29T05:07:36;3.22;;;1.85;;
65206;SDS011;58477;48.072;11.970;2023-07-29T05:10:01;1.98;;;1.75;;
65206;SDS011;58477;48.072;11.970;2023-07-29T05:12:26;2.05;;;1.70;;
65206;SDS011;58477;48.072;11.970;2023-07-29T05:14:54;2.67;;;1.48;;
65206;SDS011;58477;48.072;11.970;2023-07-29T05:17:19;4.80;;;1.40;;
65206;SDS011;58477;48.072;11.970;2023-07-29T05:19:45;1.92;;;1.60;;
65206;SDS011;58477;48.072;11.970;2023-07-29T05:22:10;5.32;;;1.70;;
65206;SDS011;58477;48.072;11.970;2023-07-29T05:24:36;5.90;;;1.50;;
65206;SDS011;58477;48.072;11.970;2023-07-29T05:27:01;4.07;;;1.63;;
65206;SDS011;58477;48.072;11.970;2023-07-29T05:29:27;2.25;;;1.65;;
65206;SDS011;58477;48.072;11.970;2023-07-29T05:31:52;2.10;;;1.23;;
65206;SDS011;58477;48.072;11.970;2023-07-29T05:34:18;1.77;;;1.67;;
65206;SDS011;58477;48.072;11.970;2023-07-29T05:36:44;2.30;;;1.90;;
65206;SDS011;58477;48.072;11.970;2023-07-29T05:39:09;2.20;;;1.90;;
65206;SDS011;58477;48.072;11.970;2023-07-29T05:41:37;1.65;;;1.40;;
65206;SDS011;58477;48.072;11.970;2023-07-29T05:44:02;2.53;;;1.60;;
65206;SDS011;58477;48.072;11.970;2023-07-29T05:46:28;1.92;;;1.52;;
65206;SDS011;58477;48.072;11.970;2023-07-29T05:48:54;6.07;;;1.70;;
65206;SDS011;58477;48.072;11.970;2023-07-29T05:51:20;2.38;;;1.73;;
65206;SDS011;58477;48.072;11.970;2023-07-29T05:53:45;2.08;;;1.70;;
65206;SDS011;58477;48.072;11.970;2023-07-29T05:56:11;1.90;;;1.40;;
65206;SDS011;58477;48.072;11.970;2023-07-29T05:58:36;4.03;;;1.77;;
65206;SDS011;58477;48.072;11.970;2023-07-29T06:01:02;1.95;;;1.50;;
65206;SDS011;58477;48.072;11.970;2023-07-29T06:03:28;2.78;;;1.83;;
65206;SDS011;58477;48.072;11.970;2023-07-29T06:05:54;1.65;;;1.45;;
65206;SDS011;58477;48.072;11.970;2023-07-29T06:08:19;2.10;;;1.70;;
65206;SDS011;58477;48.072;11.970;2023-07-29T06:10:45;3.25;;;1.20;;
65206;SDS011;58477;48.072;11.970;2023-07-29T06:13:10;2.40;;;1.60;;
65206;SDS011;58477;48.072;11.970;2023-07-29T06:15:36;1.50;;;1.40;;
65206;SDS011;58477;48.072;11.970;2023-07-29T06:18:01;1.60;;;1.50;;
65206;SDS011;58477;48.072;11.970;2023-07-29T06:20:26;1.90;;;1.50;;
65206;SDS011;58477;48.072;11.970;2023-07-29T06:22:52;1.85;;;1.40;;
65206;SDS011;58477;48.072;11.970;2023-07-29T06:25:18;9.90;;;1.52;;
65206;SDS011;58477;48.072;11.970;2023-07-29T06:27:43;3.05;;;1.70;;
65206;SDS011;58477;48.072;11.970;2023-07-29T06:30:08;3.35;;;1.63;;
65206;SDS011;58477;48.072;11.970;2023-07-29T06:32:34;2.83;;;1.85;;
65206;SDS011;58477;48.072;11.970;2023-07-29T06:34:59;1.60;;;1.38;;
65206;SDS011;58477;48.072;11.970;2023-07-29T06:37:25;2.88;;;1.77;;
65206;SDS011;58477;48.072;11.970;2023-07-29T06:39:50;1.98;;;1.60;;
65206;SDS011;58477;48.072;11.970;2023-07-29T06:42:16;5.82;;;2.10;;
65206;SDS011;58477;48.072;11.970;2023-07-29T06:44:41;7.75;;;1.90;;
65206;SDS011;58477;48.072;11.970;2023-07-29T06:47:07;14.95;;;2.20;;
65206;SDS011;58477;48.072;11.970;2023-07-29T06:49:32;3.00;;;2.15;;
65206;SDS011;58477;48.072;11.970;2023-07-29T06:51:58;5.93;;;2.20;;
65206;SDS011;58477;48.072;11.970;2023-07-29T06:54:24;5.50;;;2.10;;
65206;SDS011;58477;48.072;11.970;2023-07-29T06:56:50;5.00;;;2.08;;
65206;SDS011;58477;48.072;11.970;2023-07-29T06:59:16;2.30;;;2.10;;
65206;SDS011;58477;48.072;11.970;2023-07-29T07:01:41;3.13;;;1.92;;
65206;SDS011;58477;48.072;11.970;2023-07-29T07:04:07;2.28;;;1.90;;
65206;SDS011;58477;48.072;11.970;2023-07-29T07:06:32;2.50;;;1.73;;
65206;SDS011;58477;48.072;11.970;2023-07-29T07:08:57;2.03;;;1.42;;
65206;SDS011;58477;48.072;11.970;2023-07-29T07:11:23;1.80;;;1.70;;
65206;SDS011;58477;48.072;11.970;2023-07-29T07:13:48;2.22;;;2.03;;
65206;SDS011;58477;48.072;11.970;2023-07-29T07:16:14;2.33;;;1.77;;
65206;SDS011;58477;48.072;11.970;2023-07-29T07:18:39;2.58;;;1.88;;
65206;SDS011;58477;48.072;11.970;2023-07-29T07:21:05;5.72;;;1.80;;
65206;SDS011;58477;48.072;11.970;2023-07-29T07:23:30;3.22;;;1.48;;
65206;SDS011;58477;48.072;11.970;2023-07-29T07:25:55;3.53;;;1.88;;
65206;SDS011;58477;48.072;11.970;2023-07-29T07:28:21;7.25;;;2.15;;
65206;SDS011;58477;48.072;11.970;2023-07-29T07:30:46;2.03;;;1.70;;
65206;SDS011;58477;48.072;11.970;2023-07-29T07:33:12;2.42;;;1.92;;
65206;SDS011;58477;48.072;11.970;2023-07-29T07:35:37;1.70;;;1.60;;
65206;SDS011;58477;48.072;11.970;2023-07-29T07:38:03;3.70;;;1.70;;
65206;SDS011;58477;48.072;11.970;2023-07-29T07:40:30;2.70;;;1.63;;
65206;SDS011;58477;48.072;11.970;2023-07-29T07:42:56;1.70;;;1.60;;
65206;SDS011;58477;48.072;11.970;2023-07-29T07:45:21;2.33;;;1.77;;
65206;SDS011;58477;48.072;11.970;2023-07-29T07:47:47;2.42;;;1.80;;
65206;SDS011;58477;48.072;11.970;2023-07-29T07:50:13;2.10;;;1.60;;
65206;SDS011;58477;48.072;11.970;2023-07-29T07:52:39;2.58;;;1.80;;
65206;SDS011;58477;48.072;11.970;2023-07-29T07:55:05;1.80;;;1.60;;
65206;SDS011;58477;48.072;11.970;2023-07-29T07:57:31;1.60;;;1.40;;
65206;SDS011;58477;48.072;11.970;2023-07-29T07:59:56;1.98;;;1.50;;
65206;SDS011;58477;48.072;11.970;2023-07-29T08:02:21;2.17;;;1.60;;
65206;SDS011;58477;48.072;11.970;2023-07-29T08:04:47;1.70;;;1.60;;
65206;SDS011;58477;48.072;11.970;2023-07-29T08:07:13;1.48;;;1.38;;
65206;SDS011;58477;48.072;11.970;2023-07-29T08:09:39;2.30;;;1.75;;
65206;SDS011;58477;48.072;11.970;2023-07-29T08:12:04;1.42;;;1.33;;
65206;SDS011;58477;48.072;11.970;2023-07-29T08:14:30;1.48;;;1.38;;
65206;SDS011;58477;48.072;11.970;2023-07-29T08:16:55;2.78;;;1.80;;
65206;SDS011;58477;48.072;11.970;2023-07-29T08:19:21;1.63;;;1.50;;
65206;SDS011;58477;48.072;11.970;2023-07-29T08:21:46;1.90;;;1.50;;
65206;SDS011;58477;48.072;11.970;2023-07-29T08:24:12;2.28;;;1.90;;
65206;SDS011;58477;48.072;11.970;2023-07-29T08:26:37;1.67;;;1.52;;
65206;SDS011;58477;48.072;11.970;2023-07-29T08:29:02;1.70;;;1.60;;
65206;SDS011;58477;48.072;11.970;2023-07-29T08:31:28;1.80;;;1.67;;
65206;SDS011;58477;48.072;11.970;2023-07-29T08:33:53;3.33;;;2.00;;
65206;SDS011;58477;48.072;11.970;2023-07-29T08:36:19;2.17;;;1.50;;
65206;SDS011;58477;48.072;11.970;2023-07-29T08:38:44;1.85;;;1.70;;
65206;SDS011;58477;48.072;11.970;2023-07-29T08:41:13;2.53;;;1.70;;
65206;SDS011;58477;48.072;11.970;2023-07-29T08:46:51;1.83;;;1.73;;
65206;SDS011;58477;48.072;11.970;2023-07-29T08:49:18;3.20;;;2.33;;
65206;SDS011;58477;48.072;11.970;2023-07-29T08:51:46;2.20;;;1.88;;
65206;SDS011;58477;48.072;11.970;2023-07-29T08:54:13;3.50;;;1.70;;
65206;SDS011;58477;48.072;11.970;2023-07-29T08:56:40;1.88;;;1.70;;
65206;SDS011;58477;48.072;11.970;2023-07-29T08:59:10;1.77;;;1.45;;
65206;SDS011;58477;48.072;11.970;2023-07-29T09:01:36;5.72;;;1.50;;
65206;SDS011;58477;48.072;11.970;2023-07-29T09:04:06;2.25;;;1.73;;
65206;SDS011;58477;48.072;11.970;2023-07-29T09:06:31;1.70;;;1.40;;
65206;SDS011;58477;48.072;11.970;2023-07-29T09:08:58;3.80;;;1.70;;
65206;SDS011;58477;48.072;11.970;2023-07-29T09:11:24;1.73;;;1.63;;
65206;SDS011;58477;48.072;11.970;2023-07-29T09:13:50;2.08;;;1.60;;
65206;SDS011;58477;48.072;11.970;2023-07-29T09:16:16;5.60;;;1.90;;
65206;SDS011;58477;48.072;11.970;2023-07-29T09:18:42;2.30;;;2.10;;
65206;SDS011;58477;48.072;11.970;2023-07-29T09:21:07;4.60;;;1.60;;
65206;SDS011;58477;48.072;11.970;2023-07-29T09:23:43;1.75;;;1.65;;
65206;SDS011;58477;48.072;11.970;2023-07-29T09:26:09;2.28;;;1.73;;
65206;SDS011;58477;48.072;11.970;2023-07-29T09:28:36;1.83;;;1.63;;
65206;SDS011;58477;48.072;11.970;2023-07-29T09:31:02;1.98;;;1.52;;
65206;SDS011;58477;48.072;11.970;2023-07-29T09:33:28;1.95;;;1.75;;
65206;SDS011;58477;48.072;11.970;2023-07-29T09:35:56;1.83;;;1.65;;
65206;SDS011;58477;48.072;11.970;2023-07-29T09:38:28;2.60;;;1.60;;
65206;SDS011;58477;48.072;11.970;2023-07-29T09:40:54;1.58;;;1.48;;
65206;SDS011;58477;48.072;11.970;2023-07-29T09:43:21;1.60;;;1.50;;
65206;SDS011;58477;48.072;11.970;2023-07-29T09:45:51;1.83;;;1.35;;
65206;SDS011;58477;48.072;11.970;2023-07-29T09:48:17;4.10;;;1.52;;
65206;SDS011;58477;48.072;11.970;2023-07-29T09:50:48;1.50;;;1.40;;
65206;SDS011;58477;48.072;11.970;2023-07-29T09:53:13;1.80;;;1.70;;
65206;SDS011;58477;48.072;11.970;2023-07-29T09:55:40;1.80;;;1.50;;
65206;SDS011;58477;48.072;11.970;2023-07-29T09:58:11;2.00;;;1.65;;
65206;SDS011;58477;48.072;11.970;2023-07-29T10:00:37;2.53;;;1.50;;
65206;SDS011;58477;48.072;11.970;2023-07-29T10:03:04;1.98;;;1.60;;
65206;SDS011;58477;48.072;11.970;2023-07-29T10:05:29;2.22;;;1.60;;
65206;SDS011;58477;48.072;11.970;2023-07-29T10:07:55;1.80;;;1.50;;
65206;SDS011;58477;48.072;11.970;2023-07-29T10:10:21;1.85;;;1.63;;
65206;SDS011;58477;48.072;11.970;2023-07-29T10:12:47;1.95;;;1.75;;
65206;SDS011;58477;48.072;11.970;2023-07-29T10:15:13;1.90;;;1.70;;
65206;SDS011;58477;48.072;11.970;2023-07-29T10:17:39;2.47;;;1.85;;
65206;SDS011;58477;48.072;11.970;2023-07-29T10:20:06;2.00;;;1.70;;
65206;SDS011;58477;48.072;11.970;2023-07-29T10:22:34;2.58;;;1.50;;
65206;SDS011;58477;48.072;11.970;2023-07-29T10:25:04;11.27;;;1.70;;
65206;SDS011;58477;48.072;11.970;2023-07-29T10:27:35;2.10;;;1.60;;
65206;SDS011;58477;48.072;11.970;2023-07-29T10:30:07;2.50;;;1.80;;
65206;SDS011;58477;48.072;11.970;2023-07-29T10:32:35;3.08;;;1.75;;
65206;SDS011;58477;48.072;11.970;2023-07-29T10:35:01;1.80;;;1.70;;
65206;SDS011;58477;48.072;11.970;2023-07-29T10:37:26;2.75;;;1.88;;
65206;SDS011;58477;48.072;11.970;2023-07-29T10:39:53;3.55;;;1.98;;
65206;SDS011;58477;48.072;11.970;2023-07-29T10:42:19;2.05;;;1.70;;
65206;SDS011;58477;48.072;11.970;2023-07-29T10:44:45;3.03;;;2.08;;
65206;SDS011;58477;48.072;11.970;2023-07-29T10:47:13;2.00;;;1.80;;
65206;SDS011;58477;48.072;11.970;2023-07-29T10:49:43;2.45;;;1.50;;
65206;SDS011;58477;48.072;11.970;2023-07-29T10:52:14;1.90;;;1.80;;
65206;SDS011;58477;48.072;11.970;2023-07-29T10:54:44;1.80;;;1.70;;
65206;SDS011;58477;48.072;11.970;2023-07-29T10:57:13;1.63;;;1.50;;
65206;SDS011;58477;48.072;11.970;2023-07-29T10:59:40;2.20;;;1.60;;
65206;SDS011;58477;48.072;11.970;2023-07-29T11:02:15;2.35;;;1.38;;
65206;SDS011;58477;48.072;11.970;2023-07-29T11:04:47;3.75;;;1.58;;
65206;SDS011;58477;48.072;11.970;2023-07-29T11:20:22;1.85;;;1.70;;
65206;SDS011;58477;48.072;11.970;2023-07-29T11:22:59;2.47;;;1.67;;
65206;SDS011;58477;48.072;11.970;2023-07-29T11:25:25;1.58;;;1.48;;
65206;SDS011;58477;48.072;11.970;2023-07-29T11:27:52;1.77;;;1.65;;
65206;SDS011;58477;48.072;11.970;2023-07-29T11:30:19;4.80;;;1.75;;
65206;SDS011;58477;48.072;11.970;2023-07-29T11:32:45;2.42;;;1.88;;
65206;SDS011;58477;48.072;11.970;2023-07-29T11:35:12;5.15;;;1.55;;
65206;SDS011;58477;48.072;11.970;2023-07-29T11:37:40;1.88;;;1.77;;
65206;SDS011;58477;48.072;11.970;2023-07-29T11:40:07;1.95;;;1.70;;
65206;SDS011;58477;48.072;11.970;2023-07-29T11:42:36;1.92;;;1.83;;
65206;SDS011;58477;48.072;11.970;2023-07-29T11:45:02;2.78;;;1.70;;
65206;SDS011;58477;48.072;11.970;2023-07-29T11:47:30;3.88;;;1.77;;
65206;SDS011;58477;48.072;11.970;2023-07-29T11:49:58;1.90;;;1.75;;
65206;SDS011;58477;48.072;11.970;2023-07-29T11:52:25;2.17;;;1.90;;
65206;SDS011;58477;48.072;11.970;2023-07-29T11:54:52;1.70;;;1.60;;
65206;SDS011;58477;48.072;11.970;2023-07-29T11:57:18;1.45;;;1.30;;
65206;SDS011;58477;48.072;11.970;2023-07-29T11:59:45;4.63;;;1.52;;
65206;SDS011;58477;48.072;11.970;2023-07-29T12:02:12;1.40;;;1.30;;
65206;SDS011;58477;48.072;11.970;2023-07-29T12:04:40;1.58;;;1.35;;
65206;SDS011;58477;48.072;11.970;2023-07-29T12:07:07;1.10;;;1.00;;
65206;SDS011;58477;48.072;11.970;2023-07-29T12:09:37;2.10;;;1.10;;
65206;SDS011;58477;48.072;11.970;2023-07-29T12:12:04;2.00;;;1.15;;
65206;SDS011;58477;48.072;11.970;2023-07-29T12:14:31;1.02;;;0.93;;
65206;SDS011;58477;48.072;11.970;2023-07-29T12:16:59;2.53;;;1.20;;
65206;SDS011;58477;48.072;11.970;2023-07-29T12:19:30;1.35;;;1.20;;
65206;SDS011;58477;48.072;11.970;2023-07-29T12:21:57;1.42;;;1.33;;
65206;SDS011;58477;48.072;11.970;2023-07-29T12:24:22;1.33;;;1.23;;
65206;SDS011;58477;48.072;11.970;2023-07-29T12:26:48;1.30;;;1.20;;
65206;SDS011;58477;48.072;11.970;2023-07-29T12:29:17;1.00;;;1.00;;
65206;SDS011;58477;48.072;11.970;2023-07-29T12:34:10;2.28;;;1.25;;
65206;SDS011;58477;48.072;11.970;2023-07-29T12:36:47;0.90;;;0.90;;
65206;SDS011;58477;48.072;11.970;2023-07-29T12:39:49;1.30;;;1.20;;
65206;SDS011;58477;48.072;11.970;2023-07-29T12:42:08;1.92;;;1.20;;
65206;SDS011;58477;48.072;11.970;2023-07-29T12:44:35;1.40;;;1.30;;
65206;SDS011;58477;48.072;11.970;2023-07-29T12:47:01;2.17;;;1.30;;
65206;SDS011;58477;48.072;11.970;2023-07-29T12:49:28;2.25;;;1.35;;
65206;SDS011;58477;48.072;11.970;2023-07-29T12:51:54;1.20;;;1.15;;
65206;SDS011;58477;48.072;11.970;2023-07-29T12:54:21;1.95;;;1.45;;
65206;SDS011;58477;48.072;11.970;2023-07-29T12:56:46;1.52;;;1.30;;
65206;SDS011;58477;48.072;11.970;2023-07-29T12:59:12;1.23;;;1.10;;
65206;SDS011;58477;48.072;11.970;2023-07-29T13:01:37;2.60;;;1.35;;
65206;SDS011;58477;48.072;11.970;2023-07-29T13:04:03;1.35;;;1.25;;
65206;SDS011;58477;48.072;11.970;2023-07-29T13:06:28;1.40;;;1.30;;
65206;SDS011;58477;48.072;11.970;2023-07-29T13:08:54;2.75;;;1.50;;
65206;SDS011;58477;48.072;11.970;2023-07-29T13:11:19;1.60;;;1.50;;
65206;SDS011;58477;48.072;11.970;2023-07-29T13:13:45;3.00;;;1.45;;
65206;SDS011;58477;48.072;11.970;2023-07-29T13:16:10;1.77;;;1.50;;
65206;SDS011;58477;48.072;11.970;2023-07-29T13:18:36;1.77;;;1.52;;
65206;SDS011;58477;48.072;11.970;2023-07-29T13:21:02;1.88;;;1.63;;
65206;SDS011;58477;48.072;11.970;2023-07-29T13:23:27;3.05;;;1.52;;
65206;SDS011;58477;48.072;11.970;2023-07-29T13:25:54;1.35;;;1.25;;
65206;SDS011;58477;48.072;11.970;2023-07-29T13:28:20;4.78;;;1.38;;
65206;SDS011;58477;48.072;11.970;2023-07-29T13:30:46;3.13;;;1.55;;
65206;SDS011;58477;48.072;11.970;2023-07-29T13:33:11;1.15;;;1.05;;
65206;SDS011;58477;48.072;11.970;2023-07-29T13:35:37;1.65;;;1.40;;
65206;SDS011;58477;48.072;11.970;2023-07-29T13:38:02;1.75;;;1.52;;
65206;SDS011;58477;48.072;11.970;2023-07-29T13:40:28;2.85;;;1.60;;
65206;SDS011;58477;48.072;11.970;2023-07-29T13:42:53;3.95;;;1.67;;
65206;SDS011;58477;48.072;11.970;2023-07-29T13:45:20;2.42;;;1.70;;
65206;SDS011;58477;48.072;11.970;2023-07-29T13:47:45;6.60;;;2.38;;
65206;SDS011;58477;48.072;11.970;2023-07-29T13:50:11;2.92;;;1.90;;
65206;SDS011;58477;48.072;11.970;2023-07-29T13:52:37;4.18;;;1.67;;
65206;SDS011;58477;48.072;11.970;2023-07-29T13:55:03;3.50;;;2.05;;
65206;SDS011;58477;48.072;11.970;2023-07-29T13:57:29;4.68;;;2.05;;
65206;SDS011;58477;48.072;11.970;2023-07-29T13:59:55;3.70;;;2.10;;
65206;SDS011;58477;48.072;11.970;2023-07-29T14:02:21;3.00;;;2.05;;
65206;SDS011;58477;48.072;11.970;2023-07-29T14:04:46;2.53;;;1.85;;
65206;SDS011;58477;48.072;11.970;2023-07-29T14:07:11;2.17;;;1.58;;
65206;SDS011;58477;48.072;11.970;2023-07-29T14:09:37;3.35;;;1.90;;
65206;SDS011;58477;48.072;11.970;2023-07-29T14:12:03;3.28;;;1.60;;
65206;SDS011;58477;48.072;11.970;2023-07-29T14:14:29;2.53;;;1.90;;
65206;SDS011;58477;48.072;11.970;2023-07-29T14:16:55;3.75;;;1.73;;
65206;SDS011;58477;48.072;11.970;2023-07-29T14:19:20;2.95;;;1.80;;
65206;SDS011;58477;48.072;11.970;2023-07-29T14:21:45;4.07;;;1.80;;
65206;SDS011;58477;48.072;11.970;2023-07-29T14:24:11;4.53;;;2.13;;
65206;SDS011;58477;48.072;11.970;2023-07-29T14:26:36;2.42;;;1.88;;
65206;SDS011;58477;48.072;11.970;2023-07-29T14:29:02;2.72;;;1.85;;
65206;SDS011;58477;48.072;11.970;2023-07-29T14:31:27;1.73;;;1.40;;
65206;SDS011;58477;48.072;11.970;2023-07-29T14:33:53;3.85;;;1.83;;
65206;SDS011;58477;48.072;11.970;2023-07-29T14:36:18;5.55;;;2.63;;
65206;SDS011;58477;48.072;11.970;2023-07-29T14:38:43;3.92;;;2.30;;
65206;SDS011;58477;48.072;11.970;2023-07-29T14:41:09;2.63;;;2.22;;
65206;SDS011;58477;48.072;11.970;2023-07-29T14:43:34;2.42;;;2.20;;
65206;SDS011;58477;48.072;11.970;2023-07-29T14:46:00;2.08;;;1.80;;
65206;SDS011;58477;48.072;11.970;2023-07-29T14:48:26;2.92;;;1.90;;
65206;SDS011;58477;48.072;11.970;2023-07-29T14:50:52;1.92;;;1.58;;
65206;SDS011;58477;48.072;11.970;2023-07-29T14:53:18;5.18;;;1.80;;